Time;durP1;ratioP1;P1;durP2;ratioP2;P2;SDS_P1;SDS_P2;PMS_P1;PMS_P2;Temp;Humidity;BMP_temperature;BMP_pressure;BME280_temperature;BME280_humidity;BME280_pressure;Samples;Min_cycle;Max_cycle;Signal;HPM_P1;HPM_P2
2022/07/07 00:00:28;;;;;;;0.10;0.10;;;15.40;99.90;14.10;96486.00;;;;5055735;28;20210;-72
2022/07/07 00:02:56;;;;;;;0.00;0.00;;;15.40;99.90;13.90;96472.00;;;;5055151;28;20203;-73
2022/07/07 00:05:24;;;;;;;0.00;0.00;;;15.30;99.90;13.80;96450.00;;;;5055875;28;20198;-72
2022/07/07 00:07:54;;;;;;;0.00;0.00;;;15.30;99.90;13.80;96458.00;;;;5054754;28;20222;-74
2022/07/07 00:10:22;;;;;;;0.00;0.00;;;15.20;99.90;14.00;96497.00;;;;5056066;28;20701;-73
2022/07/07 00:12:50;;;;;;;0.00;0.00;;;15.30;99.90;14.10;96506.00;;;;5059748;28;20231;-72
2022/07/07 00:15:18;;;;;;;0.00;0.00;;;15.30;99.90;14.10;96489.00;;;;5059838;28;20187;-73
2022/07/07 00:17:46;;;;;;;0.00;0.00;;;15.40;99.90;14.10;96500.00;;;;5058017;28;20191;-72
2022/07/07 00:20:14;;;;;;;0.00;0.00;;;15.40;99.90;14.10;96490.00;;;;5058428;28;20211;-73
2022/07/07 00:22:42;;;;;;;0.00;0.00;;;15.40;99.90;14.00;96485.00;;;;5059986;28;20198;-73
2022/07/07 00:25:11;;;;;;;0.10;0.10;;;15.30;99.90;14.00;96485.00;;;;5063992;28;20195;-72
2022/07/07 00:27:39;;;;;;;0.10;0.10;;;15.30;99.90;13.80;96465.00;;;;5068849;28;20221;-73
2022/07/07 00:30:09;;;;;;;0.00;0.00;;;15.30;99.90;13.90;96458.00;;;;5067531;28;20228;-74
2022/07/07 00:32:37;;;;;;;0.00;0.00;;;15.20;99.90;13.90;96480.00;;;;5065774;28;20218;-72
2022/07/07 00:35:07;;;;;;;0.00;0.00;;;15.20;99.90;14.00;96470.00;;;;5054537;28;20376;-72
2022/07/07 00:37:35;;;;;;;0.10;0.10;;;15.30;99.90;13.90;96464.00;;;;5055427;28;20256;-73
2022/07/07 00:40:05;;;;;;;0.10;0.10;;;15.10;99.90;13.80;96443.00;;;;5055148;28;20206;-73
2022/07/07 00:42:34;;;;;;;0.00;0.00;;;15.10;99.90;13.90;96466.00;;;;5055520;28;20202;-73
2022/07/07 00:45:02;;;;;;;0.00;0.00;;;15.20;99.90;13.80;96459.00;;;;5055400;28;20190;-73
2022/07/07 00:47:33;;;;;;;0.10;0.10;;;15.10;99.90;13.90;96443.00;;;;5055183;28;20214;-73
2022/07/07 00:50:01;;;;;;;0.00;0.00;;;15.10;99.90;13.70;96455.00;;;;5054894;28;20210;-72
2022/07/07 00:52:29;;;;;;;0.00;0.00;;;15.00;99.90;13.80;96447.00;;;;5055096;28;20190;-72
2022/07/07 00:55:02;;;;;;;0.00;0.00;;;15.00;99.90;13.80;96484.00;;;;5055837;28;20209;-72
2022/07/07 00:57:31;;;;;;;0.00;0.00;;;15.10;99.90;13.70;96460.00;;;;5058802;28;20204;-72
2022/07/07 01:00:05;;;;;;;0.00;0.00;;;15.10;99.90;13.70;96431.00;;;;5062962;28;20712;-72
2022/07/07 01:02:33;;;;;;;0.00;0.00;;;15.10;99.90;13.60;96422.00;;;;5063741;28;20182;-73
2022/07/07 01:05:05;;;;;;;0.10;0.10;;;15.00;99.90;13.60;96411.00;;;;5057106;28;20677;-72
2022/07/07 01:07:34;;;;;;;0.00;0.00;;;15.00;99.90;13.70;96410.00;;;;5055334;28;20210;-73
2022/07/07 01:10:04;;;;;;;0.10;0.10;;;15.00;99.90;13.60;96418.00;;;;5055549;28;20210;-75
2022/07/07 01:12:37;;;;;;;0.00;0.00;;;15.10;99.90;13.80;96398.00;;;;5053783;28;20209;-73
2022/07/07 01:15:11;;;;;;;0.00;0.00;;;15.10;99.90;13.90;96437.00;;;;5053254;28;20194;-72
2022/07/07 01:17:40;;;;;;;0.00;0.00;;;15.20;99.90;13.90;96454.00;;;;5052745;28;20666;-72
2022/07/07 01:20:11;;;;;;;0.00;0.00;;;15.30;99.90;13.90;96416.00;;;;5052917;28;20219;-74
2022/07/07 01:22:46;;;;;;;0.00;0.00;;;15.20;99.90;13.90;96422.00;;;;5052811;28;20219;-74
2022/07/07 01:25:14;;;;;;;0.10;0.10;;;15.30;99.90;13.80;96418.00;;;;5052682;28;20194;-72
2022/07/07 01:27:42;;;;;;;0.00;0.00;;;15.20;99.90;13.70;96415.00;;;;5052490;28;20230;-73
2022/07/07 01:30:12;;;;;;;0.00;0.00;;;15.00;99.90;13.60;96386.00;;;;5052783;28;20217;-72
2022/07/07 01:32:40;;;;;;;0.10;0.10;;;15.00;99.90;13.60;96393.00;;;;5052248;28;20202;-73
2022/07/07 01:35:10;;;;;;;0.10;0.10;;;15.00;99.90;13.60;96406.00;;;;5052478;28;20560;-72
2022/07/07 01:37:38;;;;;;;0.10;0.10;;;15.00;99.90;13.60;96387.00;;;;5052186;28;20202;-72
2022/07/07 01:40:08;;;;;;;0.00;0.00;;;15.00;99.90;13.50;96387.00;;;;5052495;28;20218;-73
2022/07/07 01:42:36;;;;;;;0.10;0.10;;;14.90;99.90;13.50;96367.00;;;;5052551;28;20199;-73
2022/07/07 01:45:05;;;;;;;0.00;0.00;;;14.90;99.90;13.60;96379.00;;;;5052201;28;20190;-72
2022/07/07 01:47:33;;;;;;;0.00;0.00;;;14.90;99.90;13.60;96379.00;;;;5052251;28;20202;-73
2022/07/07 01:50:01;;;;;;;0.10;0.10;;;14.90;99.90;13.60;96396.00;;;;5051465;28;20612;-73
2022/07/07 01:52:29;;;;;;;0.00;0.00;;;15.00;99.90;13.70;96387.00;;;;5052121;28;20194;-73
2022/07/07 01:54:57;;;;;;;0.00;0.00;;;15.00;99.90;13.70;96381.00;;;;5052394;28;20198;-73
2022/07/07 01:57:26;;;;;;;0.10;0.10;;;15.00;99.90;13.40;96371.00;;;;5051974;28;20190;-73
2022/07/07 01:59:54;;;;;;;0.03;0.03;;;14.90;99.90;13.40;96385.00;;;;5051301;28;20575;-73
2022/07/07 02:02:22;;;;;;;0.03;0.03;;;14.80;99.90;13.20;96341.00;;;;5051076;28;20198;-73
2022/07/07 02:04:50;;;;;;;0.00;0.00;;;14.60;99.90;13.40;96365.00;;;;5052223;28;20194;-73
2022/07/07 02:07:18;;;;;;;0.00;0.00;;;14.60;99.90;13.60;96382.00;;;;5051673;28;20662;-74
2022/07/07 02:09:47;;;;;;;0.00;0.00;;;14.80;99.90;13.30;96365.00;;;;5051641;28;20222;-74
2022/07/07 02:12:15;;;;;;;0.05;0.05;;;14.80;99.90;13.40;96360.00;;;;5052038;28;20559;-73
2022/07/07 02:14:44;;;;;;;0.00;0.00;;;14.80;99.90;13.40;96363.00;;;;5051993;28;20197;-73
2022/07/07 02:17:13;;;;;;;0.00;0.00;;;14.80;99.90;13.40;96367.00;;;;5051901;28;20186;-73
2022/07/07 02:19:40;;;;;;;0.00;0.00;;;14.80;99.90;13.50;96384.00;;;;5051603;28;20221;-74
2022/07/07 02:22:08;;;;;;;0.00;0.00;;;14.80;99.90;13.50;96363.00;;;;5051688;28;20248;-73
2022/07/07 02:24:36;;;;;;;0.00;0.00;;;14.80;99.90;13.60;96367.00;;;;5051723;28;20215;-73
2022/07/07 02:27:05;;;;;;;0.00;0.00;;;14.80;99.90;13.50;96349.00;;;;5051624;28;20197;-73
2022/07/07 02:29:33;;;;;;;0.00;0.00;;;14.80;99.90;13.40;96355.00;;;;5051352;28;20594;-73
2022/07/07 02:32:02;;;;;;;0.10;0.10;;;14.70;99.90;13.40;96350.00;;;;5052126;28;20199;-73
2022/07/07 02:34:30;;;;;;;0.00;0.00;;;14.70;99.90;13.50;96379.00;;;;5052105;28;20387;-72
2022/07/07 02:36:58;;;;;;;0.00;0.00;;;14.80;99.90;13.40;96348.00;;;;5051997;28;20198;-73
2022/07/07 02:39:26;;;;;;;0.00;0.00;;;14.80;99.90;13.40;96347.00;;;;5054466;28;20224;-72
2022/07/07 02:41:54;;;;;;;0.10;0.10;;;14.80;99.90;13.60;96360.00;;;;5055793;28;20646;-73
2022/07/07 02:44:22;;;;;;;0.00;0.00;;;14.90;99.90;13.50;96336.00;;;;5056423;28;20209;-73
2022/07/07 02:46:50;;;;;;;0.10;0.10;;;14.90;99.90;13.50;96342.00;;;;5057279;28;20194;-73
2022/07/07 02:49:19;;;;;;;0.10;0.10;;;14.80;99.90;13.50;96354.00;;;;5056590;28;20226;-73
2022/07/07 02:51:47;;;;;;;0.00;0.00;;;14.80;99.90;13.60;96361.00;;;;5056627;28;20186;-72
2022/07/07 02:54:17;;;;;;;0.00;0.00;;;14.80;99.90;13.60;96363.00;;;;5054511;28;20584;-73
2022/07/07 02:56:45;;;;;;;0.10;0.10;;;14.90;99.90;13.40;96352.00;;;;5054505;28;20248;-72
2022/07/07 02:59:13;;;;;;;0.00;0.00;;;14.90;99.90;13.50;96355.00;;;;5055118;28;20206;-72
2022/07/07 03:01:41;;;;;;;0.10;0.10;;;14.90;99.90;13.50;96359.00;;;;5057417;28;20669;-73
2022/07/07 03:04:09;;;;;;;0.00;0.00;;;14.80;99.90;13.20;96358.00;;;;5060470;28;20190;-73
2022/07/07 03:06:38;;;;;;;0.00;0.00;;;14.60;99.90;13.30;96312.00;;;;5062424;28;20719;-72
2022/07/07 03:09:06;;;;;;;0.00;0.00;;;14.70;99.90;13.40;96361.00;;;;5059353;28;20439;-72
2022/07/07 03:11:34;;;;;;;0.00;0.00;;;14.70;99.90;13.40;96341.00;;;;5056118;28;20194;-72
2022/07/07 03:14:02;;;;;;;0.10;0.10;;;14.70;99.90;13.30;96359.00;;;;5057144;28;20684;-72
2022/07/07 03:16:30;;;;;;;0.00;0.00;;;14.70;99.90;13.40;96337.00;;;;5057008;28;20187;-73
2022/07/07 03:18:59;;;;;;;0.00;0.00;;;14.70;99.90;13.40;96340.00;;;;5056709;28;20199;-72
2022/07/07 03:21:27;;;;;;;0.00;0.00;;;14.70;99.90;13.40;96379.00;;;;5054635;28;20211;-71
2022/07/07 03:23:56;;;;;;;0.00;0.00;;;14.70;99.90;13.40;96193.00;;;;5055402;28;20197;-72
2022/07/07 03:26:24;;;;;;;0.00;0.00;;;14.70;99.90;13.30;96168.00;;;;5054852;28;20680;-72
2022/07/07 03:28:52;;;;;;;0.00;0.00;;;14.70;99.90;13.40;96156.00;;;;5054741;28;20218;-72
2022/07/07 03:31:20;;;;;;;0.00;0.00;;;14.70;99.90;13.30;96160.00;;;;5054701;28;20214;-72
2022/07/07 03:33:48;;;;;;;0.00;0.00;;;14.70;99.90;13.30;96147.00;;;;5054821;28;20226;-72
2022/07/07 03:36:16;;;;;;;0.03;0.03;;;14.60;99.90;13.50;96177.00;;;;5054898;28;20192;-74
2022/07/07 03:38:44;;;;;;;0.00;0.00;;;14.80;99.90;13.60;96160.00;;;;5054743;28;20206;-73
2022/07/07 03:41:14;;;;;;;0.00;0.00;;;14.80;99.90;13.50;96153.00;;;;5054539;28;20210;-73
2022/07/07 03:43:42;;;;;;;0.00;0.00;;;14.80;99.90;13.40;96161.00;;;;5055278;28;20514;-73
2022/07/07 03:46:10;;;;;;;0.00;0.00;;;14.80;99.90;13.40;96147.00;;;;5054566;28;20654;-73
2022/07/07 03:48:38;;;;;;;0.08;0.08;;;14.80;99.90;13.40;96160.00;;;;5054242;28;20187;-73
2022/07/07 03:51:06;;;;;;;0.00;0.00;;;14.80;99.90;13.70;96228.00;;;;5055378;28;20225;-72
2022/07/07 03:53:34;;;;;;;0.00;0.00;;;14.90;99.90;13.80;96184.00;;;;5055302;28;20197;-72
2022/07/07 03:56:02;;;;;;;0.08;0.08;;;15.00;99.90;13.80;96185.00;;;;5055340;28;20190;-72
2022/07/07 03:58:32;;;;;;;0.00;0.00;;;15.00;99.90;13.70;96164.00;;;;5055805;28;20206;-73
2022/07/07 04:01:00;;;;;;;0.03;0.03;;;14.90;99.90;13.70;96164.00;;;;5055733;28;20224;-73
2022/07/07 04:03:28;;;;;;;0.00;0.00;;;14.90;99.90;13.70;96161.00;;;;5055087;28;20218;-73
2022/07/07 04:05:57;;;;;;;0.00;0.00;;;14.90;99.90;13.70;96177.00;;;;5061337;28;20230;-75
2022/07/07 04:08:25;;;;;;;0.00;0.00;;;15.00;99.90;13.80;96166.00;;;;5060454;28;20198;-76
2022/07/07 04:10:53;;;;;;;0.00;0.00;;;15.00;99.90;13.90;96198.00;;;;5058432;28;20222;-76
2022/07/07 04:13:21;;;;;;;0.00;0.00;;;15.10;99.90;13.80;96193.00;;;;5058157;28;20191;-76
2022/07/07 04:15:50;;;;;;;0.00;0.00;;;15.20;99.90;13.90;96191.00;;;;5059555;28;20190;-76
2022/07/07 04:18:18;;;;;;;0.03;0.03;;;15.20;99.90;13.80;96171.00;;;;5058881;28;20205;-75
2022/07/07 04:20:46;;;;;;;0.00;0.00;;;15.10;99.90;13.70;96171.00;;;;5059837;28;20214;-75
2022/07/07 04:23:14;;;;;;;0.00;0.00;;;15.00;99.90;13.70;96166.00;;;;5060682;28;20194;-75
2022/07/07 04:25:42;;;;;;;0.10;0.10;;;15.00;99.90;13.80;96164.00;;;;5060415;28;20240;-76
2022/07/07 04:28:11;;;;;;;0.05;0.05;;;15.00;99.90;13.70;96145.00;;;;5061229;28;20201;-76
2022/07/07 04:30:39;;;;;;;0.00;0.00;;;14.90;99.90;13.70;96142.00;;;;5059288;28;20232;-76
2022/07/07 04:33:09;;;;;;;0.00;0.00;;;14.90;99.90;13.60;96129.00;;;;5060535;28;20194;-76
2022/07/07 04:35:37;;;;;;;0.00;0.00;;;14.90;99.90;13.60;96142.00;;;;5055969;28;20191;-76
2022/07/07 04:38:06;;;;;;;0.00;0.00;;;14.90;99.90;13.60;96115.00;;;;5053694;28;20210;-76
2022/07/07 04:40:34;;;;;;;0.00;0.00;;;14.90;99.90;13.70;96146.00;;;;5055523;28;20214;-76
2022/07/07 04:43:02;;;;;;;0.00;0.00;;;15.00;99.90;13.70;96127.00;;;;5054571;28;20195;-76
2022/07/07 04:45:30;;;;;;;0.00;0.00;;;14.90;99.90;13.70;96132.00;;;;5054904;28;20190;-75
2022/07/07 04:47:58;;;;;;;0.00;0.00;;;15.00;99.90;13.70;96115.00;;;;5053830;28;20202;-76
2022/07/07 04:50:28;;;;;;;0.00;0.00;;;15.00;99.90;13.70;96109.00;;;;5053932;28;20758;-76
2022/07/07 04:52:56;;;;;;;0.00;0.00;;;14.90;99.90;13.70;96087.00;;;;5053353;28;20198;-76
2022/07/07 04:55:24;;;;;;;0.05;0.05;;;14.90;99.90;13.60;96102.00;;;;5054060;28;20191;-76
2022/07/07 04:57:52;;;;;;;0.00;0.00;;;14.90;99.90;13.60;96109.00;;;;5054191;28;20195;-76
2022/07/07 05:00:20;;;;;;;0.10;0.10;;;14.90;99.90;13.40;96138.00;;;;5053556;28;20214;-77
2022/07/07 05:02:48;;;;;;;0.10;0.10;;;15.00;99.90;13.80;96120.00;;;;5054234;28;20194;-77
2022/07/07 05:05:16;;;;;;;0.00;0.00;;;15.00;99.90;13.80;96125.00;;;;5053560;28;20190;-76
2022/07/07 05:07:45;;;;;;;0.00;0.00;;;15.10;99.90;13.80;96144.00;;;;5053490;28;20191;-76
2022/07/07 05:10:14;;;;;;;0.00;0.00;;;15.10;99.90;13.90;96152.00;;;;5054043;28;20226;-76
2022/07/07 05:12:42;;;;;;;0.00;0.00;;;15.20;99.90;13.70;96127.00;;;;5056661;28;20717;-76
2022/07/07 05:15:11;;;;;;;0.10;0.10;;;15.00;99.90;13.70;96125.00;;;;5056328;28;20198;-76
2022/07/07 05:17:38;;;;;;;0.00;0.00;;;15.00;99.90;13.60;96115.00;;;;5059585;28;20195;-76
2022/07/07 05:20:08;;;;;;;0.10;0.10;;;14.90;99.90;13.50;96101.00;;;;5056410;28;20206;-76
2022/07/07 05:22:36;;;;;;;0.10;0.10;;;14.80;99.90;13.60;96113.00;;;;5055356;28;20202;-77
2022/07/07 05:25:07;;;;;;;0.00;0.00;;;14.90;99.90;13.50;96114.00;;;;5056533;28;20194;-76
2022/07/07 05:27:34;;;;;;;0.00;0.00;;;14.80;99.90;13.50;96121.00;;;;5063184;28;20198;-74
2022/07/07 05:30:03;;;;;;;0.10;0.10;;;14.80;99.90;13.60;96129.00;;;;5073400;28;20228;-75
2022/07/07 05:32:31;;;;;;;0.00;0.00;;;14.90;99.90;13.60;96106.00;;;;5072933;28;20202;-75
2022/07/07 05:34:59;;;;;;;0.10;0.10;;;14.90;99.90;13.60;96114.00;;;;5071140;28;20194;-75
2022/07/07 05:37:27;;;;;;;0.00;0.00;;;14.90;99.90;13.60;96104.00;;;;5052604;28;20198;-76
2022/07/07 05:39:55;;;;;;;0.00;0.00;;;14.80;99.90;13.50;96083.00;;;;5052184;28;20210;-76
2022/07/07 05:42:24;;;;;;;0.00;0.00;;;14.70;99.90;13.40;96079.00;;;;5053415;28;20186;-76
2022/07/07 05:44:52;;;;;;;0.00;0.00;;;14.70;99.90;13.50;96091.00;;;;5052895;28;20190;-77
2022/07/07 05:47:20;;;;;;;0.00;0.00;;;14.70;99.90;13.50;96089.00;;;;5053081;28;20194;-76
2022/07/07 05:49:48;;;;;;;0.00;0.00;;;14.80;99.90;13.40;96080.00;;;;5052801;28;20210;-75
2022/07/07 05:52:16;;;;;;;0.00;0.00;;;14.70;99.90;13.50;96096.00;;;;5053765;28;20191;-75
2022/07/07 05:54:44;;;;;;;0.00;0.00;;;14.70;99.90;13.40;96087.00;;;;5052833;28;20558;-75
2022/07/07 05:57:14;;;;;;;0.00;0.00;;;14.70;99.90;13.40;96084.00;;;;5052981;28;20190;-75
2022/07/07 05:59:43;;;;;;;0.00;0.00;;;14.70;99.90;13.40;96087.00;;;;5052751;28;20215;-76
2022/07/07 06:02:11;;;;;;;0.00;0.00;;;14.70;99.90;13.50;96096.00;;;;5052735;28;20539;-76
2022/07/07 06:04:39;;;;;;;0.00;0.00;;;14.70;99.90;13.50;96091.00;;;;5052818;28;20222;-76
2022/07/07 06:07:07;;;;;;;0.00;0.00;;;14.70;99.90;13.30;96078.00;;;;5053442;28;20230;-76
2022/07/07 06:09:35;;;;;;;0.10;0.10;;;14.60;99.90;13.40;96089.00;;;;5053800;28;20312;-76
2022/07/07 06:12:04;;;;;;;0.03;0.03;;;14.60;99.90;13.40;96095.00;;;;5053780;28;20214;-77
2022/07/07 06:14:32;;;;;;;0.00;0.00;;;14.60;99.90;13.40;96111.00;;;;5053852;28;20213;-76
2022/07/07 06:17:01;;;;;;;0.00;0.00;;;14.70;99.90;13.50;96109.00;;;;5053897;28;20573;-76
2022/07/07 06:19:29;;;;;;;0.10;0.10;;;14.80;99.90;13.60;96116.00;;;;5054054;28;20210;-76
2022/07/07 06:21:57;;;;;;;0.10;0.10;;;14.80;99.90;13.50;96104.00;;;;5053859;28;20693;-76
2022/07/07 06:24:25;;;;;;;0.00;0.00;;;14.80;99.90;13.40;96079.00;;;;5053958;28;20202;-76
2022/07/07 06:26:53;;;;;;;0.00;0.00;;;14.70;99.90;13.40;96051.00;;;;5054048;28;20236;-77
2022/07/07 06:29:21;;;;;;;0.05;0.05;;;14.60;99.90;13.30;96066.00;;;;5053818;28;20202;-76
2022/07/07 06:31:49;;;;;;;0.10;0.10;;;14.60;99.90;13.30;96063.00;;;;5054190;28;20229;-76
2022/07/07 06:34:18;;;;;;;0.00;0.00;;;14.60;99.90;13.30;96051.00;;;;5054283;28;20586;-76
2022/07/07 06:36:46;;;;;;;0.05;0.05;;;14.50;99.90;13.30;96061.00;;;;5055715;28;20204;-77
2022/07/07 06:39:14;;;;;;;0.10;0.10;;;14.50;99.90;13.30;96045.00;;;;5057589;28;20200;-77
2022/07/07 06:41:42;;;;;;;0.00;0.00;;;14.50;99.90;13.30;96061.00;;;;5057987;28;20545;-77
2022/07/07 06:44:11;;;;;;;0.10;0.10;;;14.50;99.90;13.30;96062.00;;;;5058017;28;20297;-76
2022/07/07 06:46:40;;;;;;;0.00;0.00;;;14.50;99.90;13.20;96066.00;;;;5057751;28;20676;-76
2022/07/07 06:49:09;;;;;;;0.10;0.10;;;14.50;99.90;13.30;96054.00;;;;5056518;28;20560;-76
2022/07/07 06:51:38;;;;;;;0.00;0.00;;;14.50;99.90;13.40;96080.00;;;;5056800;28;20304;-75
2022/07/07 06:54:06;;;;;;;0.00;0.00;;;14.60;99.90;13.40;96077.00;;;;5056628;28;20658;-76
2022/07/07 06:56:34;;;;;;;0.00;0.00;;;14.60;99.90;13.50;96084.00;;;;5056093;28;20606;-75
2022/07/07 06:59:02;;;;;;;0.10;0.10;;;14.70;99.90;13.50;96072.00;;;;5057146;28;20268;-75
2022/07/07 07:01:31;;;;;;;0.00;0.00;;;14.70;99.90;13.50;96042.00;;;;5056709;28;20233;-75
2022/07/07 07:03:59;;;;;;;0.00;0.00;;;14.80;99.90;13.50;96050.00;;;;5056714;28;20195;-75
2022/07/07 07:06:28;;;;;;;0.10;0.10;;;14.70;99.90;13.40;96081.00;;;;5056751;28;20273;-75
2022/07/07 07:08:58;;;;;;;0.00;0.00;;;14.70;99.90;13.40;96099.00;;;;5056860;28;20191;-75
2022/07/07 07:11:27;;;;;;;0.10;0.10;;;14.70;99.90;13.60;96102.00;;;;5056392;28;20249;-75
2022/07/07 07:13:58;;;;;;;0.00;0.00;;;14.80;99.90;13.50;96088.00;;;;5055655;28;20203;-76
2022/07/07 07:16:26;;;;;;;0.00;0.00;;;14.70;99.90;13.50;96095.00;;;;5055116;28;20195;-76
2022/07/07 07:18:54;;;;;;;0.00;0.00;;;14.80;99.90;13.60;96099.00;;;;5054983;28;20456;-75
2022/07/07 07:21:22;;;;;;;0.08;0.08;;;14.90;99.90;13.60;96097.00;;;;5055368;28;20701;-76
2022/07/07 07:23:50;;;;;;;0.10;0.10;;;14.90;99.90;13.50;96096.00;;;;5055092;28;20527;-74
2022/07/07 07:26:19;;;;;;;0.00;0.00;;;14.80;99.90;13.60;96100.00;;;;5055290;28;20198;-76
2022/07/07 07:28:47;;;;;;;0.10;0.10;;;14.90;99.90;13.60;96118.00;;;;5055113;28;20197;-76
2022/07/07 07:31:15;;;;;;;0.00;0.00;;;14.80;99.90;13.60;96119.00;;;;5054995;28;20210;-76
2022/07/07 07:33:44;;;;;;;0.00;0.00;;;14.80;99.90;13.50;96087.00;;;;5055838;28;20265;-75
2022/07/07 07:36:12;;;;;;;0.00;0.00;;;14.70;99.90;13.20;96068.00;;;;5055617;28;20568;-76
2022/07/07 07:38:40;;;;;;;0.10;0.10;;;14.60;99.90;13.20;96071.00;;;;5055124;28;20201;-75
2022/07/07 07:41:12;;;;;;;0.00;0.00;;;14.50;99.90;13.20;96062.00;;;;5055495;28;20217;-75
2022/07/07 07:43:41;;;;;;;0.00;0.00;;;14.40;99.90;13.10;96038.00;;;;5055449;28;20736;-76
2022/07/07 07:46:09;;;;;;;0.10;0.10;;;14.30;99.90;13.10;96029.00;;;;5055815;28;20194;-76
2022/07/07 07:48:37;;;;;;;0.10;0.10;;;14.30;99.90;13.10;95962.00;;;;5054751;28;20187;-75
2022/07/07 07:51:06;;;;;;;0.10;0.10;;;14.30;99.90;13.00;96011.00;;;;5056825;28;20708;-75
2022/07/07 07:53:34;;;;;;;0.00;0.00;;;14.20;99.90;13.00;96038.00;;;;5056164;28;20198;-76
2022/07/07 07:56:02;;;;;;;0.00;0.00;;;14.30;99.90;13.20;96040.00;;;;5056029;28;20205;-76
2022/07/07 07:58:30;;;;;;;0.00;0.00;;;14.40;99.90;13.20;96039.00;;;;5055786;28;20194;-76
2022/07/07 08:01:00;;;;;;;0.00;0.00;;;14.40;99.90;13.20;96036.00;;;;5056010;28;20699;-75
2022/07/07 08:03:28;;;;;;;0.00;0.00;;;14.40;99.90;13.20;96035.00;;;;5057137;28;20205;-75
2022/07/07 08:05:57;;;;;;;0.10;0.10;;;14.40;99.90;13.20;96033.00;;;;5056891;28;20448;-75
2022/07/07 08:08:25;;;;;;;0.10;0.10;;;14.40;99.90;13.20;96029.00;;;;5056250;28;20210;-76
2022/07/07 08:10:53;;;;;;;0.00;0.00;;;14.40;99.90;13.20;96041.00;;;;5054858;28;20220;-75
2022/07/07 08:13:21;;;;;;;0.10;0.10;;;14.40;99.90;13.20;96041.00;;;;5054700;28;20198;-75
2022/07/07 08:15:49;;;;;;;0.03;0.03;;;14.40;99.90;13.20;96039.00;;;;5056776;28;20190;-75
2022/07/07 08:18:18;;;;;;;0.05;0.05;;;14.50;99.90;13.20;96046.00;;;;5057299;28;20262;-75
2022/07/07 08:20:46;;;;;;;0.00;0.00;;;14.50;99.90;13.20;96051.00;;;;5058472;28;20289;-75
2022/07/07 08:23:14;;;;;;;0.00;0.00;;;14.50;99.90;13.20;96052.00;;;;5055127;28;20670;-74
2022/07/07 08:25:42;;;;;;;0.08;0.08;;;14.50;99.90;13.30;96046.00;;;;5054408;28;20195;-75
2022/07/07 08:28:10;;;;;;;0.10;0.10;;;14.50;99.90;13.30;96036.00;;;;5054527;28;20187;-75
2022/07/07 08:30:38;;;;;;;0.00;0.00;;;14.50;99.90;13.20;96030.00;;;;5056297;28;20217;-75
2022/07/07 08:33:07;;;;;;;0.05;0.05;;;14.50;99.90;13.30;96041.00;;;;5054252;28;20226;-75
2022/07/07 08:35:36;;;;;;;0.10;0.10;;;14.50;99.90;13.30;96055.00;;;;5054732;28;20217;-76
2022/07/07 08:38:04;;;;;;;0.10;0.10;;;14.60;99.90;13.30;96039.00;;;;5052706;28;20202;-75
2022/07/07 08:40:33;;;;;;;0.08;0.08;;;14.60;99.90;13.20;96032.00;;;;5054651;28;20221;-75
2022/07/07 08:43:01;;;;;;;0.10;0.10;;;14.50;99.90;13.30;96068.00;;;;5054747;28;20197;-76
2022/07/07 08:45:29;;;;;;;0.00;0.00;;;14.60;99.90;13.20;96042.00;;;;5054285;28;20565;-76
2022/07/07 08:47:57;;;;;;;0.00;0.00;;;14.50;99.90;13.20;95976.00;;;;5054688;28;20885;-75
2022/07/07 08:50:27;;;;;;;0.00;0.00;;;14.50;99.90;13.30;95931.00;;;;5053703;28;20202;-75
2022/07/07 08:52:58;;;;;;;0.10;0.10;;;14.50;99.90;13.20;96027.00;;;;5053898;28;20559;-75
2022/07/07 08:55:27;;;;;;;0.10;0.10;;;14.40;99.90;13.20;96046.00;;;;5054679;28;20654;-74
2022/07/07 08:57:55;;;;;;;0.10;0.10;;;14.50;99.90;13.20;96045.00;;;;5053527;28;20260;-75
2022/07/07 09:00:23;;;;;;;0.00;0.00;;;14.50;99.90;13.30;96043.00;;;;5053929;28;20225;-75
2022/07/07 09:02:57;;;;;;;0.10;0.10;;;14.60;99.90;13.20;96038.00;;;;5053478;28;20205;-75
2022/07/07 09:05:26;;;;;;;0.00;0.00;;;14.50;99.90;13.10;96013.00;;;;5053448;28;20669;-75
2022/07/07 09:07:56;;;;;;;0.10;0.10;;;14.40;99.90;13.20;96035.00;;;;5052940;28;20708;-75
2022/07/07 09:10:33;;;;;;;0.10;0.10;;;14.50;99.90;13.20;96051.00;;;;5054229;28;20225;-75
2022/07/07 09:13:02;;;;;;;0.10;0.10;;;14.50;99.90;13.20;96090.00;;;;5053999;28;20221;-76
2022/07/07 09:15:40;;;;;;;0.10;0.10;;;14.50;99.90;13.20;96047.00;;;;5053473;28;20248;-74
2022/07/07 09:18:08;;;;;;;0.10;0.10;;;14.50;99.90;13.10;96022.00;;;;5053017;28;20183;-74
2022/07/07 09:20:38;;;;;;;0.10;0.10;;;14.40;99.90;13.00;95998.00;;;;5053223;28;20253;-76
2022/07/07 09:23:08;;;;;;;0.10;0.10;;;14.30;99.90;13.00;95990.00;;;;5053643;28;20296;-75
2022/07/07 09:25:41;;;;;;;0.00;0.00;;;14.30;99.90;13.10;96006.00;;;;5056692;28;20281;-75
2022/07/07 09:28:10;;;;;;;0.10;0.10;;;14.30;99.90;13.00;95995.00;;;;5060893;28;20197;-75
2022/07/07 09:30:41;;;;;;;0.00;0.00;;;14.30;99.90;13.10;96000.00;;;;5059644;28;20224;-74
2022/07/07 09:33:11;;;;;;;0.00;0.00;;;14.30;99.90;13.20;96035.00;;;;5056785;28;20218;-74
2022/07/07 09:38:31;;;;;;;0.10;0.10;;;14.50;99.90;13.40;96050.00;;;;5053851;28;20209;-75
2022/07/07 09:41:03;;;;;;;0.10;0.10;;;14.70;99.90;13.50;96068.00;;;;5053125;28;20236;-75
2022/07/07 09:43:34;;;;;;;0.10;0.10;;;14.70;99.90;13.40;96035.00;;;;5053606;28;20284;-75
2022/07/07 09:46:18;;;;;;;0.10;0.10;;;14.70;99.90;13.50;96025.00;;;;5054029;28;20200;-75
2022/07/07 09:48:49;;;;;;;0.00;0.00;;;14.70;99.90;13.50;96048.00;;;;5057264;28;20551;-74
2022/07/07 09:51:24;;;;;;;0.10;0.10;;;14.70;99.90;13.60;96058.00;;;;5056000;28;20297;-75
2022/07/07 09:54:03;;;;;;;0.00;0.00;;;14.80;99.90;13.70;96009.00;;;;5056033;28;20213;-74
2022/07/07 09:56:35;;;;;;;0.00;0.00;;;14.90;99.90;13.60;96067.00;;;;5056929;28;20193;-74
2022/07/07 09:59:07;;;;;;;0.00;0.00;;;14.90;99.90;13.60;96073.00;;;;5061671;28;20187;-74
2022/07/07 10:01:37;;;;;;;0.00;0.00;;;14.80;99.90;13.60;96069.00;;;;5056442;28;20198;-75
2022/07/07 10:04:08;;;;;;;0.08;0.08;;;14.80;99.90;13.60;96057.00;;;;5056761;28;20201;-75
2022/07/07 10:06:38;;;;;;;0.00;0.00;;;14.80;99.90;13.60;96089.00;;;;5054157;28;20201;-74
2022/07/07 10:09:10;;;;;;;0.10;0.10;;;14.80;99.90;13.60;96072.00;;;;5053940;28;20194;-75
2022/07/07 10:11:41;;;;;;;0.00;0.00;;;14.80;99.90;13.50;96004.00;;;;5052196;28;20205;-75
2022/07/07 10:14:14;;;;;;;0.10;0.10;;;14.80;99.90;13.50;96046.00;;;;5059272;28;20225;-75
2022/07/07 10:16:45;;;;;;;0.00;0.00;;;14.80;99.90;13.40;96031.00;;;;5060572;28;20194;-74
2022/07/07 10:19:18;;;;;;;0.00;0.00;;;14.70;99.90;13.40;96032.00;;;;5060953;28;20186;-75
2022/07/07 10:21:48;;;;;;;0.05;0.05;;;14.70;99.90;13.30;96047.00;;;;5053167;28;20622;-76
2022/07/07 10:24:20;;;;;;;0.00;0.00;;;14.60;99.90;13.10;96046.00;;;;5052849;28;20209;-73
2022/07/07 10:26:53;;;;;;;0.00;0.00;;;14.60;99.90;13.40;96055.00;;;;5051946;28;20241;-73
2022/07/07 10:29:39;;;;;;;0.00;0.00;;;14.60;99.90;13.40;96049.00;;;;5053429;28;20195;-73
2022/07/07 10:32:10;;;;;;;0.05;0.05;;;14.70;99.90;13.40;96050.00;;;;5052314;28;20198;-72
2022/07/07 10:34:41;;;;;;;0.08;0.08;;;14.60;99.90;13.40;96054.00;;;;5052092;28;20201;-74
2022/07/07 10:37:12;;;;;;;0.00;0.00;;;14.70;99.90;13.50;96079.00;;;;5052903;28;20680;-73
2022/07/07 10:39:47;;;;;;;0.00;0.00;;;14.70;99.90;13.50;96062.00;;;;5052505;28;20254;-73
2022/07/07 10:43:14;;;;;;;0.00;0.00;;;14.70;99.90;13.60;96078.00;;;;5054464;28;20194;-75
2022/07/07 10:45:46;;;;;;;0.10;0.10;;;14.80;99.90;13.70;96082.00;;;;5054119;28;20195;-73
2022/07/07 10:48:46;;;;;;;0.00;0.00;;;14.90;99.90;13.60;96071.00;;;;5054276;28;20601;-73
2022/07/07 10:51:20;;;;;;;0.10;0.10;;;14.80;99.90;13.60;96055.00;;;;5054658;28;20207;-73
2022/07/07 10:54:02;;;;;;;0.00;0.00;;;14.80;99.90;13.60;96070.00;;;;5055260;28;20713;-74
2022/07/07 10:57:19;;;;;;;0.10;0.10;;;14.80;99.90;13.70;96115.00;;;;5054372;28;20203;-74
2022/07/07 11:00:18;;;;;;;0.00;0.00;;;14.90;99.90;13.60;96056.00;;;;5055385;28;20214;-74
2022/07/07 11:02:51;;;;;;;0.00;0.00;;;14.90;99.90;13.60;96061.00;;;;5054424;28;20191;-75
2022/07/07 11:05:33;;;;;;;0.00;0.00;;;14.80;99.90;13.70;96065.00;;;;5054621;28;20563;-75
2022/07/07 11:08:11;;;;;;;0.00;0.00;;;14.90;99.90;13.80;96073.00;;;;5053369;28;20281;-74